Time;durP1;ratioP1;P1;durP2;ratioP2;P2;SDS_P1;SDS_P2;PMS_P1;PMS_P2;Temp;Humidity;BMP_temperature;BMP_pressure;BME280_temperature;BME280_humidity;BME280_pressure;Samples;Min_cycle;Max_cycle;Signal;HPM_P1;HPM_P2
2023/10/30 00:01:21;;;;;;;4.20;2.65;;;;;;;22.07;48.28;99718.16;5028264;28;20116;-45
2023/10/30 00:03:46;;;;;;;3.85;2.22;;;;;;;22.14;48.33;99721.69;5031529;28;20052;-47
2023/10/30 00:06:11;;;;;;;4.57;2.92;;;;;;;22.11;48.09;99722.06;5026532;28;20026;-46
2023/10/30 00:08:36;;;;;;;4.18;2.35;;;;;;;22.09;48.32;99718.78;5028115;28;20025;-47
2023/10/30 00:11:02;;;;;;;3.92;2.35;;;;;;;22.07;48.36;99725.44;5030573;28;20598;-47
2023/10/30 00:13:27;;;;;;;5.88;2.78;;;;;;;22.04;48.49;99718.56;5030311;28;20033;-46
2023/10/30 00:15:54;;;;;;;5.22;3.17;;;;;;;22.01;48.35;99737.97;5033071;28;20026;-47
2023/10/30 00:18:19;;;;;;;5.10;2.50;;;;;;;22.00;48.64;99735.47;5033805;28;20057;-45
2023/10/30 00:20:45;;;;;;;4.38;2.83;;;;;;;21.96;48.56;99732.38;5010228;28;20056;-46
2023/10/30 00:23:10;;;;;;;4.13;2.22;;;;;;;21.94;48.46;99742.59;5034719;28;20033;-47
2023/10/30 00:25:36;;;;;;;4.57;2.80;;;;;;;21.92;48.50;99747.41;5029049;28;20034;-45
2023/10/30 00:28:02;;;;;;;4.78;2.53;;;;;;;21.90;48.64;99749.47;5031306;28;20033;-47
2023/10/30 00:30:27;;;;;;;4.68;2.47;;;;;;;21.87;48.65;99756.16;5034453;28;20084;-46
2023/10/30 00:32:52;;;;;;;4.32;2.30;;;;;;;21.85;48.88;99768.25;5041612;28;20038;-44
2023/10/30 00:35:18;;;;;;;4.68;2.38;;;;;;;21.84;48.63;99761.19;5028261;28;20045;-47
2023/10/30 00:37:43;;;;;;;5.28;2.85;;;;;;;21.81;48.85;99761.59;5032189;28;20032;-45
2023/10/30 00:40:09;;;;;;;4.88;2.70;;;;;;;21.68;48.96;99752.50;5037075;28;20038;-45
2023/10/30 00:42:35;;;;;;;5.70;2.38;;;;;;;21.77;48.70;99773.91;5036218;28;20029;-45
2023/10/30 00:45:00;;;;;;;5.85;2.50;;;;;;;21.74;48.91;99772.44;5033831;28;20030;-46
2023/10/30 00:47:25;;;;;;;4.40;2.38;;;;;;;21.73;49.02;99761.84;5029248;28;20034;-46
2023/10/30 00:49:51;;;;;;;5.00;3.00;;;;;;;21.70;48.99;99763.91;5032757;28;20026;-46
2023/10/30 00:52:16;;;;;;;9.50;3.47;;;;;;;21.68;49.14;99773.31;5029148;28;20491;-45
2023/10/30 00:54:41;;;;;;;4.00;2.10;;;;;;;21.65;48.98;99776.44;5027219;28;20034;-46
2023/10/30 00:57:06;;;;;;;4.63;2.63;;;;;;;21.63;49.23;99770.44;5042723;28;20034;-45
2023/10/30 00:59:32;;;;;;;5.60;3.13;;;;;;;21.56;49.09;99772.31;5031110;28;20025;-46
2023/10/30 01:01:57;;;;;;;3.53;2.35;;;;;;;21.58;49.19;99776.47;5035194;28;20045;-45
2023/10/30 01:04:22;;;;;;;4.32;2.22;;;;;;;21.57;49.26;99782.91;5033892;28;20528;-46
2023/10/30 01:06:48;;;;;;;4.30;2.33;;;;;;;21.55;49.28;99786.91;5035326;28;20075;-44
2023/10/30 01:09:13;;;;;;;3.63;2.38;;;;;;;21.53;49.41;99786.25;5016375;28;20026;-46
2023/10/30 01:11:38;;;;;;;3.35;2.17;;;;;;;21.51;49.29;99794.59;5034076;28;20580;-45
2023/10/30 01:14:03;;;;;;;3.63;2.10;;;;;;;21.49;49.19;99798.53;5029396;28;20084;-44
2023/10/30 01:16:29;;;;;;;6.93;2.60;;;;;;;21.46;49.18;99797.94;5041413;28;20036;-45
2023/10/30 01:18:54;;;;;;;5.93;3.20;;;;;;;21.44;49.40;99796.47;5038445;28;20033;-45
2023/10/30 01:21:20;;;;;;;3.92;2.47;;;;;;;21.41;49.45;99803.16;5035864;28;20055;-46
2023/10/30 01:23:45;;;;;;;4.85;1.98;;;;;;;21.39;49.52;99812.53;5028931;28;20044;-45
2023/10/30 01:26:11;;;;;;;3.13;2.03;;;;;;;21.36;49.51;99813.75;5032701;28;20035;-48
2023/10/30 01:28:36;;;;;;;3.50;2.08;;;;;;;21.20;49.74;99797.97;5035313;28;20049;-46
2023/10/30 01:31:04;;;;;;;9.35;2.85;;;;;;;21.31;49.67;99815.41;5031489;28;20034;-44
2023/10/30 01:33:30;;;;;;;4.47;1.98;;;;;;;21.26;50.01;99816.03;5030037;28;20044;-44
2023/10/30 01:35:55;;;;;;;4.55;2.40;;;;;;;21.26;49.90;99832.25;5031470;28;20033;-47
2023/10/30 01:38:20;;;;;;;4.32;2.13;;;;;;;21.12;49.95;99800.91;5034061;28;20121;-45
2023/10/30 01:40:49;;;;;;;4.03;2.45;;;;;;;21.24;49.96;99823.56;5035129;28;20196;-45
2023/10/30 01:43:15;;;;;;;4.10;2.20;;;;;;;21.21;49.73;99822.09;5036158;28;20029;-45
2023/10/30 01:45:40;;;;;;;3.15;1.77;;;;;;;21.19;49.84;99821.44;5036531;28;20031;-47
2023/10/30 01:48:06;;;;;;;4.38;2.20;;;;;;;21.17;50.04;99822.72;5039299;28;20083;-50
2023/10/30 01:50:32;;;;;;;4.40;2.20;;;;;;;21.15;49.85;99828.34;5015092;28;20018;-46
2023/10/30 01:52:57;;;;;;;5.05;2.00;;;;;;;21.12;49.82;99825.22;5016575;28;20025;-44
2023/10/30 01:55:23;;;;;;;3.75;2.03;;;;;;;21.12;50.00;99833.34;5026729;28;20030;-48
2023/10/30 01:57:49;;;;;;;2.75;1.58;;;;;;;21.12;50.07;99839.56;5032676;28;20032;-46
2023/10/30 02:00:15;;;;;;;3.55;1.88;;;;;;;21.10;50.20;99827.28;5028284;28;20021;-45
2023/10/30 02:02:41;;;;;;;3.22;1.92;;;;;;;21.08;49.90;99830.22;5025675;28;20108;-46
2023/10/30 02:05:08;;;;;;;4.18;2.28;;;;;;;21.06;49.97;99831.44;5035709;28;20033;-46
2023/10/30 02:07:34;;;;;;;3.65;2.25;;;;;;;21.07;49.88;99828.56;5035717;28;20028;-45
2023/10/30 02:10:00;;;;;;;3.63;1.92;;;;;;;21.03;50.13;99823.78;5032074;28;20416;-48
2023/10/30 02:12:25;;;;;;;3.30;2.05;;;;;;;21.02;50.31;99833.72;5033873;28;20032;-45
2023/10/30 02:14:51;;;;;;;3.63;1.73;;;;;;;21.03;50.32;99835.41;5031676;28;20084;-47
2023/10/30 02:17:16;;;;;;;4.18;2.17;;;;;;;21.02;50.24;99832.91;5026626;28;20037;-46
2023/10/30 02:19:41;;;;;;;4.32;2.30;;;;;;;20.99;50.38;99822.53;5036619;28;20478;-45
2023/10/30 02:22:07;;;;;;;3.15;1.80;;;;;;;20.95;50.28;99822.94;5039072;28;20060;-46
2023/10/30 02:24:32;;;;;;;3.67;2.33;;;;;;;20.97;50.18;99826.25;5032578;28;20037;-47
2023/10/30 02:26:57;;;;;;;3.70;2.30;;;;;;;20.97;50.17;99828.13;5032732;28;20036;-46
2023/10/30 02:29:23;;;;;;;4.03;2.08;;;;;;;20.95;50.40;99835.63;5034692;28;20025;-46
2023/10/30 02:31:50;;;;;;;4.13;2.13;;;;;;;20.94;50.36;99836.66;5035301;28;20026;-46
2023/10/30 02:34:15;;;;;;;4.72;2.13;;;;;;;20.92;50.57;99842.25;5031828;28;20559;-47
2023/10/30 02:36:41;;;;;;;5.90;2.05;;;;;;;20.90;50.25;99843.53;5028309;28;20026;-45
2023/10/30 02:39:07;;;;;;;2.83;1.83;;;;;;;20.89;50.65;99849.94;5032923;28;20022;-46
2023/10/30 02:41:32;;;;;;;3.83;1.77;;;;;;;20.88;50.33;99845.59;5036468;28;20034;-46
2023/10/30 02:43:58;;;;;;;2.97;1.58;;;;;;;20.69;50.50;99820.25;5037295;28;20033;-45
2023/10/30 02:46:24;;;;;;;2.97;1.83;;;;;;;20.84;50.43;99845.16;5035843;28;20029;-45
2023/10/30 02:48:50;;;;;;;3.40;2.22;;;;;;;20.85;50.27;99851.41;5030364;28;20026;-44
2023/10/30 02:51:15;;;;;;;3.95;2.15;;;;;;;20.84;50.65;99855.16;5033643;28;20096;-45
2023/10/30 02:53:40;;;;;;;2.95;1.85;;;;;;;20.83;50.64;99853.50;5033226;28;20025;-45
2023/10/30 02:56:06;;;;;;;4.20;1.95;;;;;;;20.70;50.55;99833.53;5028852;28;20551;-44
2023/10/30 02:58:31;;;;;;;2.67;1.60;;;;;;;20.80;50.43;99849.31;5031410;28;20041;-45
2023/10/30 03:00:57;;;;;;;2.05;1.30;;;;;;;20.80;50.46;99848.50;5025683;28;20021;-46
2023/10/30 03:03:22;;;;;;;3.17;1.70;;;;;;;20.79;50.73;99853.06;5034288;28;20104;-44
2023/10/30 03:05:48;;;;;;;2.85;1.70;;;;;;;20.77;50.53;99840.78;5034439;28;20034;-44
2023/10/30 03:08:14;;;;;;;2.95;1.80;;;;;;;20.77;50.73;99848.91;5036312;28;20456;-46
2023/10/30 03:10:39;;;;;;;3.30;1.67;;;;;;;20.70;50.81;99843.50;5035832;28;20054;-46
2023/10/30 03:13:04;;;;;;;3.42;1.80;;;;;;;20.75;50.88;99851.00;5032161;28;20025;-46
2023/10/30 03:15:30;;;;;;;2.90;1.70;;;;;;;20.69;50.89;99849.97;5031732;28;20029;-45
2023/10/30 03:17:55;;;;;;;3.17;2.10;;;;;;;20.71;50.89;99851.41;5028837;28;20060;-44
2023/10/30 03:20:20;;;;;;;4.47;1.80;;;;;;;20.70;50.57;99860.53;5029559;28;20025;-45
2023/10/30 03:22:46;;;;;;;2.72;1.60;;;;;;;20.69;50.78;99855.34;5028933;28;20079;-46
2023/10/30 03:25:11;;;;;;;3.15;1.90;;;;;;;20.69;50.87;99855.34;5029930;28;20301;-44
2023/10/30 03:27:36;;;;;;;3.15;1.92;;;;;;;20.66;50.90;99855.75;5033140;28;20080;-46
2023/10/30 03:30:03;;;;;;;2.72;1.60;;;;;;;20.66;51.02;99864.69;5035427;28;20022;-45
2023/10/30 03:32:28;;;;;;;3.63;2.13;;;;;;;20.52;50.79;99840.56;5035326;28;20052;-44
2023/10/30 03:34:54;;;;;;;3.67;1.90;;;;;;;20.52;50.91;99845.94;5029475;28;20025;-45
2023/10/30 03:37:19;;;;;;;4.25;1.90;;;;;;;20.60;50.86;99856.56;5030085;28;20033;-45
2023/10/30 03:39:45;;;;;;;4.40;1.95;;;;;;;20.55;50.80;99851.78;5027423;28;20048;-45
2023/10/30 03:42:11;;;;;;;4.75;2.25;;;;;;;20.46;50.78;99843.00;5025762;28;20026;-45
2023/10/30 03:44:36;;;;;;;2.38;1.80;;;;;;;20.59;50.83;99863.00;5031761;28;20061;-45
2023/10/30 03:47:02;;;;;;;2.90;1.30;;;;;;;20.57;51.16;99871.31;5035384;28;20116;-45
2023/10/30 03:49:27;;;;;;;2.47;1.55;;;;;;;20.56;50.83;99868.81;5027669;28;20358;-45
2023/10/30 03:51:52;;;;;;;4.20;2.10;;;;;;;20.56;50.97;99876.91;5032871;28;20025;-46
2023/10/30 03:54:17;;;;;;;3.17;1.50;;;;;;;20.55;51.16;99875.25;5033852;28;20417;-46
2023/10/30 03:56:43;;;;;;;2.38;1.70;;;;;;;20.54;51.07;99873.59;5033381;28;20025;-45
2023/10/30 03:59:09;;;;;;;2.17;1.60;;;;;;;20.52;51.13;99883.75;5032058;28;20101;-45
2023/10/30 04:01:35;;;;;;;3.92;1.67;;;;;;;20.52;50.98;99875.66;5011991;28;20033;-45
2023/10/30 04:04:01;;;;;;;3.58;1.60;;;;;;;20.50;51.24;99875.03;5031082;28;20477;-46
2023/10/30 04:06:26;;;;;;;3.10;1.40;;;;;;;20.50;50.86;99875.88;5030129;28;20053;-46
2023/10/30 04:08:51;;;;;;;2.88;1.80;;;;;;;20.48;51.00;99869.84;5024708;28;20022;-45
2023/10/30 04:11:17;;;;;;;3.40;1.60;;;;;;;20.47;51.13;99860.03;5029691;28;20053;-44
2023/10/30 04:13:43;;;;;;;3.92;2.38;;;;;;;20.46;51.02;99861.91;5034363;28;20036;-45
2023/10/30 04:16:18;;;;;;;5.82;2.45;;;;;;;20.44;51.25;99864.00;5031968;28;20038;-45
2023/10/30 04:18:43;;;;;;;3.97;1.70;;;;;;;20.44;51.26;99860.47;5030395;28;20022;-45
2023/10/30 04:21:08;;;;;;;2.40;1.65;;;;;;;20.33;51.12;99852.94;5029046;28;20424;-48
2023/10/30 04:23:34;;;;;;;3.25;1.90;;;;;;;20.42;50.94;99867.94;5031827;28;20029;-47
2023/10/30 04:25:59;;;;;;;2.92;1.40;;;;;;;20.41;51.30;99868.97;5026145;28;20480;-45
2023/10/30 04:28:24;;;;;;;2.40;1.27;;;;;;;20.40;50.93;99861.91;5037697;28;20053;-46
2023/10/30 04:30:49;;;;;;;4.40;2.03;;;;;;;20.39;51.23;99865.63;5035742;28;20489;-45
2023/10/30 04:33:15;;;;;;;2.28;1.90;;;;;;;20.39;51.06;99861.09;5035596;28;20300;-44
2023/10/30 04:35:40;;;;;;;3.15;1.92;;;;;;;20.36;51.46;99861.47;5030043;28;20032;-46
2023/10/30 04:38:05;;;;;;;3.75;1.60;;;;;;;20.36;51.44;99857.97;5029393;28;20026;-44
2023/10/30 04:40:31;;;;;;;2.97;1.55;;;;;;;20.34;51.34;99855.44;5031245;28;20028;-46
2023/10/30 04:42:56;;;;;;;3.47;2.00;;;;;;;20.34;51.11;99860.00;5031233;28;20435;-46
2023/10/30 04:45:21;;;;;;;3.03;1.83;;;;;;;20.32;51.16;99854.00;5028997;28;20049;-45
2023/10/30 04:47:47;;;;;;;2.85;1.67;;;;;;;20.31;51.14;99852.34;5027749;28;20094;-45
2023/10/30 04:50:12;;;;;;;2.83;1.63;;;;;;;20.31;51.44;99846.94;5029807;28;20025;-45
2023/10/30 04:52:37;;;;;;;2.83;1.40;;;;;;;20.29;51.51;99854.41;5032192;28;20380;-45
2023/10/30 04:55:03;;;;;;;3.28;1.65;;;;;;;20.20;51.27;99841.06;5034538;28;20033;-44
2023/10/30 04:57:28;;;;;;;2.72;1.52;;;;;;;20.26;51.65;99858.31;5034967;28;20387;-45
2023/10/30 04:59:54;;;;;;;2.88;1.77;;;;;;;20.22;51.12;99857.09;5027024;28;20099;-45
2023/10/30 05:02:19;;;;;;;3.53;1.77;;;;;;;20.25;51.48;99867.47;5031659;28;20033;-48
2023/10/30 05:04:44;;;;;;;1.92;1.73;;;;;;;20.23;51.56;99862.28;5026889;28;20038;-46
2023/10/30 05:07:10;;;;;;;3.47;1.60;;;;;;;20.23;51.21;99867.66;5028390;28;20065;-44
2023/10/30 05:09:36;;;;;;;3.00;1.40;;;;;;;20.22;51.31;99868.72;5029469;28;20034;-45
2023/10/30 05:12:01;;;;;;;2.60;1.50;;;;;;;20.10;51.56;99837.94;5028033;28;20026;-44
2023/10/30 05:14:26;;;;;;;2.85;1.65;;;;;;;20.21;51.52;99860.81;5036152;28;20044;-44
2023/10/30 05:16:52;;;;;;;2.53;1.33;;;;;;;20.20;51.59;99868.06;5035667;28;20033;-46
2023/10/30 05:19:17;;;;;;;3.45;1.70;;;;;;;20.19;51.43;99858.31;5020158;28;20029;-45
2023/10/30 05:21:43;;;;;;;5.63;1.95;;;;;;;20.19;51.66;99860.19;5035023;28;20463;-45
2023/10/30 05:24:08;;;;;;;3.47;1.48;;;;;;;20.19;51.96;99865.59;5032249;28;20037;-47
2023/10/30 05:26:33;;;;;;;1.90;1.40;;;;;;;20.18;51.93;99862.06;5031508;28;20025;-45
2023/10/30 05:28:58;;;;;;;2.85;1.50;;;;;;;20.18;52.17;99864.75;5032658;28;20041;-45
2023/10/30 05:31:24;;;;;;;2.05;1.30;;;;;;;20.17;52.23;99868.47;5026469;28;20018;-46
2023/10/30 05:33:49;;;;;;;3.60;1.80;;;;;;;20.17;51.98;99863.06;5042822;28;20567;-46
2023/10/30 05:36:14;;;;;;;2.50;1.48;;;;;;;20.16;52.05;99864.09;5041618;28;20029;-45
2023/10/30 05:38:40;;;;;;;4.22;2.20;;;;;;;20.16;51.98;99864.09;5038816;28;20094;-46
2023/10/30 05:41:05;;;;;;;2.60;1.42;;;;;;;20.16;52.06;99861.41;5038094;28;20051;-45
2023/10/30 05:43:30;;;;;;;4.45;1.50;;;;;;;20.15;52.13;99867.03;5037997;28;20028;-45
2023/10/30 05:45:56;;;;;;;1.77;1.20;;;;;;;20.15;52.28;99869.72;5036860;28;20027;-44
2023/10/30 05:48:21;;;;;;;2.70;1.80;;;;;;;20.14;52.26;99873.47;5038525;28;20029;-45
2023/10/30 05:50:46;;;;;;;3.20;1.52;;;;;;;20.14;52.15;99862.66;5029197;28;20042;-45
2023/10/30 05:53:12;;;;;;;2.95;1.50;;;;;;;20.13;52.51;99860.97;5012035;28;20037;-46
2023/10/30 05:55:37;;;;;;;2.28;1.45;;;;;;;19.98;52.44;99842.25;5037678;28;20025;-45
2023/10/30 05:58:03;;;;;;;3.42;1.80;;;;;;;20.12;52.63;99864.72;5029110;28;20033;-44
2023/10/30 06:00:29;;;;;;;3.70;1.35;;;;;;;20.12;52.29;99868.25;5037704;28;20032;-44
2023/10/30 06:02:55;;;;;;;2.85;1.30;;;;;;;20.11;52.37;99873.84;5034211;28;20056;-44
2023/10/30 06:05:21;;;;;;;3.15;1.83;;;;;;;19.92;52.53;99854.69;5033089;28;20085;-45
2023/10/30 06:07:47;;;;;;;3.97;2.08;;;;;;;20.10;52.53;99891.09;5031891;28;20439;-44
2023/10/30 06:10:13;;;;;;;2.47;1.20;;;;;;;20.08;52.89;99893.97;5032001;28;20536;-46
2023/10/30 06:12:38;;;;;;;2.13;1.10;;;;;;;20.09;52.92;99895.66;5030654;28;20041;-45
2023/10/30 06:15:05;;;;;;;2.65;1.50;;;;;;;20.03;53.03;99891.03;5035068;28;20030;-46
2023/10/30 06:17:30;;;;;;;3.30;1.38;;;;;;;19.95;53.04;99870.44;5017221;28;20052;-46
2023/10/30 06:19:56;;;;;;;1.73;1.30;;;;;;;20.08;53.20;99893.13;5039682;28;20112;-47
2023/10/30 06:22:21;;;;;;;2.92;1.60;;;;;;;20.06;53.04;99887.13;5036903;28;20049;-45
2023/10/30 06:24:47;;;;;;;3.72;1.73;;;;;;;20.05;53.00;99886.28;5026627;28;20037;-44
2023/10/30 06:27:12;;;;;;;3.50;1.50;;;;;;;20.06;53.08;99892.53;5034326;28;20064;-46
2023/10/30 06:29:37;;;;;;;2.88;1.77;;;;;;;20.05;53.09;99894.38;5030069;28;20022;-48
2023/10/30 06:32:03;;;;;;;4.63;1.48;;;;;;;20.05;52.94;99896.22;5030961;28;20034;-45
2023/10/30 06:34:28;;;;;;;2.90;1.40;;;;;;;20.02;53.42;99881.28;5026235;28;20026;-46
2023/10/30 06:36:53;;;;;;;1.75;1.13;;;;;;;20.04;53.05;99891.88;5033803;28;20034;-47
2023/10/30 06:39:20;;;;;;;3.25;1.55;;;;;;;20.04;53.48;99891.88;5032188;28;20377;-46
2023/10/30 06:41:48;;;;;;;4.45;1.40;;;;;;;20.03;53.04;99892.91;5034876;28;20476;-46
2023/10/30 06:44:16;;;;;;;3.17;1.63;;;;;;;19.98;52.90;99888.13;5034003;28;20162;-44
2023/10/30 06:46:44;;;;;;;2.92;1.60;;;;;;;20.02;53.08;99894.78;5034630;28;20085;-46
2023/10/30 06:49:09;;;;;;;4.07;1.25;;;;;;;20.02;53.00;99902.88;5032968;28;20048;-45
2023/10/30 06:51:35;;;;;;;2.67;1.55;;;;;;;19.61;53.06;99846.22;5034639;28;20022;-44
2023/10/30 06:54:00;;;;;;;4.47;1.67;;;;;;;20.01;53.21;99916.53;5037984;28;20033;-47
2023/10/30 06:56:25;;;;;;;3.30;1.50;;;;;;;19.99;53.08;99903.25;5028907;28;20064;-46
2023/10/30 06:58:50;;;;;;;3.40;1.60;;;;;;;20.00;53.19;99909.50;5034710;28;20032;-44
2023/10/30 07:01:16;;;;;;;2.40;1.30;;;;;;;20.00;53.08;99909.50;5026901;28;20037;-46
2023/10/30 07:03:41;;;;;;;2.30;1.42;;;;;;;19.97;53.14;99922.38;5031712;28;20017;-45
2023/10/30 07:06:10;;;;;;;2.72;1.33;;;;;;;19.97;53.21;99921.53;5032761;28;20026;-45
2023/10/30 07:08:36;;;;;;;;;;;;;;;19.97;53.27;99918.84;5033747;28;20048;-46
2023/10/30 07:11:01;;;;;;;3.15;1.98;;;;;;;19.96;53.10;99928.81;5029216;28;19921;-47
2023/10/30 07:13:26;;;;;;;4.95;1.50;;;;;;;19.94;53.55;99930.03;5027186;28;20033;-46
2023/10/30 07:15:51;;;;;;;2.78;1.30;;;;;;;19.94;53.15;99936.25;5031724;28;20029;-47
2023/10/30 07:18:17;;;;;;;2.53;1.33;;;;;;;19.94;53.00;99930.03;5030636;28;20033;-46
2023/10/30 07:20:43;;;;;;;2.55;1.55;;;;;;;19.88;53.10;99914.59;5036674;28;20056;-45
2023/10/30 07:23:08;;;;;;;1.95;1.30;;;;;;;19.93;53.39;99928.38;5036766;28;20037;-47
2023/10/30 07:25:34;;;;;;;3.00;1.50;;;;;;;19.93;53.43;99933.75;5026249;28;20030;-46
2023/10/30 07:27:59;;;;;;;3.15;1.40;;;;;;;19.92;53.42;99945.56;5031681;28;20081;-44
2023/10/30 07:30:25;;;;;;;2.65;1.30;;;;;;;19.92;53.14;99937.47;5034877;28;20030;-46
2023/10/30 07:32:50;;;;;;;3.47;1.85;;;;;;;19.91;53.19;99946.59;5032532;28;20046;-45
2023/10/30 07:35:16;;;;;;;2.75;1.73;;;;;;;19.90;53.05;99943.06;5029745;28;20056;-45
2023/10/30 07:37:41;;;;;;;3.25;1.42;;;;;;;19.89;53.04;99949.50;5028561;28;20037;-46
2023/10/30 07:40:07;;;;;;;3.05;1.50;;;;;;;19.89;53.48;99964.84;5027344;28;20061;-45
2023/10/30 07:42:32;;;;;;;4.03;1.67;;;;;;;19.89;53.29;99975.66;5036533;28;20086;-45
2023/10/30 07:44:57;;;;;;;2.78;1.40;;;;;;;19.75;53.45;99953.13;5034270;28;20029;-45
2023/10/30 07:47:23;;;;;;;2.72;1.58;;;;;;;19.88;53.40;99973.97;5035743;28;20025;-45
2023/10/30 07:49:48;;;;;;;3.97;1.25;;;;;;;19.80;53.06;99956.09;5026314;28;20057;-45
2023/10/30 07:52:13;;;;;;;2.05;1.35;;;;;;;19.87;53.37;99956.13;5029674;28;20037;-47
2023/10/30 07:54:39;;;;;;;2.85;1.50;;;;;;;19.86;53.58;99959.84;5033992;28;20041;-47
2023/10/30 07:57:04;;;;;;;2.50;1.33;;;;;;;19.83;53.74;99960.22;5028255;28;20033;-45
2023/10/30 07:59:32;;;;;;;2.30;1.35;;;;;;;19.84;53.30;99965.44;5031535;28;20125;-46
2023/10/30 08:01:57;;;;;;;2.33;1.10;;;;;;;19.84;53.16;99973.53;5032656;28;20092;-46
2023/10/30 08:04:22;;;;;;;4.20;1.45;;;;;;;19.85;53.43;99979.78;5017612;28;20045;-45
2023/10/30 08:06:48;;;;;;;2.95;1.20;;;;;;;19.84;53.38;99978.94;5035553;28;20447;-46
2023/10/30 08:09:15;;;;;;;2.58;1.25;;;;;;;19.84;53.69;99973.53;5032641;28;20024;-46
2023/10/30 08:11:41;;;;;;;2.65;1.35;;;;;;;19.84;53.28;99973.53;5034174;28;20049;-47
2023/10/30 08:14:07;;;;;;;3.58;1.25;;;;;;;19.84;53.00;99975.41;5030991;28;20057;-46
2023/10/30 08:16:34;;;;;;;1.98;1.08;;;;;;;19.83;53.38;99977.25;5029425;28;20113;-46
2023/10/30 08:19:00;;;;;;;3.63;1.38;;;;;;;19.83;53.24;99979.94;5029023;28;20061;-45
2023/10/30 08:21:25;;;;;;;3.60;1.38;;;;;;;19.83;53.37;99979.94;5031480;28;20098;-47
2023/10/30 08:23:50;;;;;;;1.92;1.45;;;;;;;19.83;53.51;99981.81;5022155;28;20029;-44
2023/10/30 08:26:15;;;;;;;3.60;1.50;;;;;;;19.83;53.20;99982.66;5027070;28;20061;-45
2023/10/30 08:28:42;;;;;;;2.55;1.42;;;;;;;19.84;53.64;99991.59;5030646;28;20060;-46
2023/10/30 08:31:07;;;;;;;1.63;1.13;;;;;;;19.73;53.39;99977.59;5034393;28;20025;-46
2023/10/30 08:33:33;;;;;;;2.05;1.20;;;;;;;19.82;53.60;99994.47;5036296;28;20040;-45
2023/10/30 08:35:58;;;;;;;2.67;1.40;;;;;;;19.82;53.39;100005.25;5030586;28;20032;-47
2023/10/30 08:38:23;;;;;;;2.85;1.20;;;;;;;19.82;53.40;100004.44;5029725;28;20096;-45
2023/10/30 08:40:49;;;;;;;3.30;1.27;;;;;;;19.82;53.37;99999.03;5029185;28;20128;-45
2023/10/30 08:43:14;;;;;;;3.20;1.42;;;;;;;19.81;53.52;99997.38;5032011;28;20373;-46
2023/10/30 08:45:39;;;;;;;2.30;1.00;;;;;;;19.77;53.60;99988.00;5035994;28;20017;-46
2023/10/30 08:48:05;;;;;;;2.38;1.23;;;;;;;19.82;53.67;99986.38;5027990;28;20022;-45
2023/10/30 08:50:30;;;;;;;2.40;1.10;;;;;;;19.81;53.81;99978.50;5033716;28;20455;-47
2023/10/30 08:52:55;;;;;;;2.65;1.50;;;;;;;19.81;53.85;99987.41;5036019;28;20060;-45
2023/10/30 08:55:21;;;;;;;2.42;1.40;;;;;;;19.81;53.60;99982.03;5036094;28;20042;-47
2023/10/30 08:57:46;;;;;;;1.58;1.20;;;;;;;19.82;53.79;99994.47;5034911;28;20037;-45
2023/10/30 09:00:12;;;;;;;4.13;1.13;;;;;;;19.81;53.59;99991.97;5032335;28;20041;-45
2023/10/30 09:02:38;;;;;;;4.00;1.60;;;;;;;19.82;53.96;99989.06;5029962;28;20132;-46
2023/10/30 09:05:04;;;;;;;2.15;1.05;;;;;;;19.83;53.64;99990.75;5030647;28;20485;-47
2023/10/30 09:07:29;;;;;;;2.92;1.25;;;;;;;19.77;53.76;99982.63;5035851;28;20025;-45
2023/10/30 09:09:55;;;;;;;2.03;1.35;;;;;;;19.77;54.09;99991.53;5038947;28;20045;-44
2023/10/30 09:12:20;;;;;;;1.63;1.27;;;;;;;19.83;53.63;99998.84;5038191;28;20060;-47
2023/10/30 09:14:46;;;;;;;2.03;1.10;;;;;;;19.73;53.92;99984.88;5032895;28;20029;-45
2023/10/30 09:17:11;;;;;;;3.35;1.38;;;;;;;19.83;54.21;99981.81;5034385;28;20044;-46
2023/10/30 09:19:37;;;;;;;1.65;0.85;;;;;;;19.82;53.95;99980.16;5033519;28;20037;-48
2023/10/30 09:22:03;;;;;;;2.20;1.23;;;;;;;19.84;54.36;99973.53;5031982;28;20038;-45
2023/10/30 09:24:28;;;;;;;1.77;1.10;;;;;;;19.76;54.15;99954.00;5027756;28;20112;-49
2023/10/30 09:26:54;;;;;;;2.53;1.30;;;;;;;19.87;54.25;99966.91;5033080;28;20064;-45
2023/10/30 09:29:19;;;;;;;3.83;1.23;;;;;;;19.86;54.34;99963.38;5037871;28;20045;-45
2023/10/30 09:31:44;;;;;;;2.70;1.30;;;;;;;19.88;54.46;99971.25;5038528;28;20038;-45
2023/10/30 09:34:10;;;;;;;2.03;1.33;;;;;;;19.89;54.40;99970.25;5039042;28;20511;-45
2023/10/30 09:36:35;;;;;;;2.53;0.95;;;;;;;19.89;54.11;99970.25;5037497;28;20060;-45
2023/10/30 09:39:01;;;;;;;2.42;1.13;;;;;;;19.89;54.10;99973.78;5031161;28;20141;-45
2023/10/30 09:41:27;;;;;;;2.15;1.05;;;;;;;19.78;54.21;99958.13;5034130;28;20033;-46
2023/10/30 09:43:53;;;;;;;1.85;1.10;;;;;;;19.69;54.35;99946.66;5031998;28;20022;-46
2023/10/30 09:46:22;;;;;;;2.78;1.10;;;;;;;19.90;53.85;99975.44;5033230;28;20390;-47
2023/10/30 09:48:48;;;;;;;2.70;1.30;;;;;;;19.90;53.94;99977.31;5032463;28;20029;-47
2023/10/30 09:51:14;;;;;;;1.30;0.95;;;;;;;19.90;54.23;99980.84;5016499;28;20079;-50
2023/10/30 09:53:40;;;;;;;2.75;1.00;;;;;;;19.87;53.93;99970.44;5036516;28;20025;-45
2023/10/30 09:56:08;;;;;;;3.75;1.17;;;;;;;19.90;53.90;99982.69;5036512;28;20061;-44
2023/10/30 09:58:35;;;;;;;2.20;1.17;;;;;;;19.90;54.16;99982.69;5036663;28;20033;-46
2023/10/30 10:01:01;;;;;;;1.48;0.90;;;;;;;19.84;54.41;99978.94;5026453;28;20097;-46
2023/10/30 10:03:26;;;;;;;4.13;1.23;;;;;;;19.89;54.06;99976.47;5031033;28;20030;-44
2023/10/30 10:05:59;;;;;;;2.13;1.27;;;;;;;19.89;54.36;99981.88;5030555;28;20065;-46
2023/10/30 10:08:26;;;;;;;2.88;1.05;;;;;;;19.85;54.03;99988.69;5032071;28;20033;-45
2023/10/30 10:11:02;;;;;;;2.35;1.30;;;;;;;19.88;54.00;99995.53;5028266;28;20045;-47
2023/10/30 10:13:29;;;;;;;1.90;1.20;;;;;;;19.84;54.16;99989.72;5034079;28;20052;-47
2023/10/30 10:15:54;;;;;;;2.25;1.30;;;;;;;19.86;54.10;99986.81;5031793;28;20018;-46
2023/10/30 10:18:31;;;;;;;1.95;1.13;;;;;;;19.88;53.94;99990.16;5035543;28;20383;-45
2023/10/30 10:20:59;;;;;;;3.05;1.58;;;;;;;19.88;54.00;99979.34;5017405;28;20036;-45
2023/10/30 10:23:25;;;;;;;1.83;1.00;;;;;;;19.80;53.97;99968.75;5031395;28;20503;-45
2023/10/30 10:25:55;;;;;;;2.60;1.35;;;;;;;19.88;54.17;99982.06;5029263;28;20033;-47
2023/10/30 10:28:22;;;;;;;2.40;1.13;;;;;;;19.82;54.36;99967.50;5030732;28;20022;-46
2023/10/30 10:30:47;;;;;;;2.20;1.27;;;;;;;19.89;54.03;99970.25;5029265;28;20033;-45
2023/10/30 10:33:12;;;;;;;2.35;0.85;;;;;;;19.82;54.38;99955.88;5029219;28;20132;-47
2023/10/30 10:35:40;;;;;;;3.05;1.30;;;;;;;19.91;54.50;99973.56;5037615;28;20026;-46
2023/10/30 10:38:09;;;;;;;3.13;1.17;;;;;;;19.91;54.25;99971.69;5030189;28;20021;-46
2023/10/30 10:40:35;;;;;;;;;;;;;;;19.93;54.00;99971.53;5023806;28;20026;-46
2023/10/30 10:43:02;;;;;;;2.30;1.25;;;;;;;19.93;54.19;99969.66;5034682;28;19956;-45
2023/10/30 10:45:28;;;;;;;2.45;1.40;;;;;;;19.94;54.19;99968.63;5031886;28;20029;-46
2023/10/30 10:47:54;;;;;;;3.05;1.20;;;;;;;19.90;53.81;99959.25;5033705;28;20044;-46
2023/10/30 10:50:20;;;;;;;1.73;1.10;;;;;;;19.97;54.16;99960.13;5028988;28;20035;-45
2023/10/30 10:52:46;;;;;;;2.20;1.45;;;;;;;19.76;53.73;99921.63;5029888;28;20053;-45
2023/10/30 10:55:13;;;;;;;3.17;1.35;;;;;;;19.99;54.18;99949.13;5036735;28;20029;-46
2023/10/30 10:57:51;;;;;;;2.30;1.25;;;;;;;20.04;53.94;99957.47;5019695;28;20361;-46
2023/10/30 11:00:17;;;;;;;1.23;1.00;;;;;;;19.59;53.84;99867.97;5016296;28;20029;-47
2023/10/30 11:02:44;;;;;;;2.75;1.23;;;;;;;20.10;53.53;99947.75;5032095;28;20540;-47
2023/10/30 11:05:10;;;;;;;1.63;1.00;;;;;;;20.12;53.52;99951.91;5032213;28;20097;-45
2023/10/30 11:07:41;;;;;;;2.28;1.10;;;;;;;20.15;53.68;99950.69;5018796;28;20037;-46
2023/10/30 11:10:17;;;;;;;2.00;1.05;;;;;;;20.16;53.75;99949.63;5028068;28;20085;-47
2023/10/30 11:12:55;;;;;;;1.60;1.00;;;;;;;20.20;53.76;99945.50;5011295;28;20503;-47
2023/10/30 11:15:30;;;;;;;2.07;1.33;;;;;;;20.17;53.30;99938.63;5002861;28;20029;-45
2023/10/30 11:18:15;;;;;;;2.22;1.00;;;;;;;20.26;53.30;99936.59;5017475;28;20275;-45
2023/10/30 11:20:44;;;;;;;1.60;0.90;;;;;;;20.29;53.55;99929.97;5032066;28;20046;-45
2023/10/30 11:23:09;;;;;;;3.47;1.42;;;;;;;20.31;53.15;99923.34;5035152;28;20392;-46
2023/10/30 11:25:45;;;;;;;3.13;1.10;;;;;;;20.33;53.49;99915.88;5011018;28;20033;-47
2023/10/30 11:28:10;;;;;;;2.63;1.02;;;;;;;20.37;53.11;99919.00;5031748;28;20075;-46